Welkom

[Source: ADDS]
METAR
EBBR 101250Z 19016G26KT CAVOK 06/01 Q1022 NOSIG =
EBBR 101110Z 1012/1118 19014KT CAVOK BECMG 1016/1018 19016G28KT BECMG 1023/1102 SCT008 BKN012 TEMPO 1103/1108 4500 RA BKN008 BECMG 1108/1110 23006KT FEW020 SCT035
TAF
EBBR 101110Z 1012/1118 19014KT CAVOK BECMG 1016/1018 19016G28KT BECMG 1023/1102 SCT008 BKN012 TEMPO 1103/1108 4500 RA BKN008 BECMG 1108/1110 23006KT FEW020 SCT035 =

Visweer Vlissingen

StormCell is een non profit organisatie zonder oogmerk tot sensatie